sensor_id;sensor_type;location;lat;lon;timestamp;P1;durP1;ratioP1;P2;durP2;ratioP2
7239;SDS011;3661;53.288;10.458;2023-02-28T00:00:39;621.90;;;456.60;;
7239;SDS011;3661;53.288;10.458;2023-02-28T00:03:12;620.10;;;453.85;;
7239;SDS011;3661;53.288;10.458;2023-02-28T00:05:44;620.35;;;447.42;;
7239;SDS011;3661;53.288;10.458;2023-02-28T00:08:16;619.80;;;444.73;;
7239;SDS011;3661;53.288;10.458;2023-02-28T00:10:48;624.13;;;445.65;;
7239;SDS011;3661;53.288;10.458;2023-02-28T00:13:22;622.35;;;450.10;;
7239;SDS011;3661;53.288;10.458;2023-02-28T00:16:01;621.47;;;451.63;;
7239;SDS011;3661;53.288;10.458;2023-02-28T00:18:34;619.88;;;437.17;;
7239;SDS011;3661;53.288;10.458;2023-02-28T00:21:07;616.33;;;429.92;;
7239;SDS011;3661;53.288;10.458;2023-02-28T00:23:39;618.97;;;440.15;;
7239;SDS011;3661;53.288;10.458;2023-02-28T00:26:12;615.95;;;449.00;;
7239;SDS011;3661;53.288;10.458;2023-02-28T00:28:45;613.63;;;431.17;;
7239;SDS011;3661;53.288;10.458;2023-02-28T00:31:18;612.03;;;440.63;;
7239;SDS011;3661;53.288;10.458;2023-02-28T00:33:50;614.35;;;443.40;;
7239;SDS011;3661;53.288;10.458;2023-02-28T00:36:22;616.90;;;432.25;;
7239;SDS011;3661;53.288;10.458;2023-02-28T00:38:54;614.13;;;435.17;;
7239;SDS011;3661;53.288;10.458;2023-02-28T00:41:27;609.57;;;433.40;;
7239;SDS011;3661;53.288;10.458;2023-02-28T00:44:00;609.03;;;422.35;;
7239;SDS011;3661;53.288;10.458;2023-02-28T00:46:32;607.25;;;423.05;;
7239;SDS011;3661;53.288;10.458;2023-02-28T00:49:04;608.08;;;427.98;;
7239;SDS011;3661;53.288;10.458;2023-02-28T00:51:36;611.35;;;440.30;;
7239;SDS011;3661;53.288;10.458;2023-02-28T00:54:08;608.70;;;424.05;;
7239;SDS011;3661;53.288;10.458;2023-02-28T00:56:41;608.95;;;434.27;;
7239;SDS011;3661;53.288;10.458;2023-02-28T00:59:17;603.67;;;415.08;;
7239;SDS011;3661;53.288;10.458;2023-02-28T01:01:52;605.40;;;433.13;;
7239;SDS011;3661;53.288;10.458;2023-02-28T01:04:26;606.65;;;428.88;;
7239;SDS011;3661;53.288;10.458;2023-02-28T01:06:58;602.88;;;419.63;;
7239;SDS011;3661;53.288;10.458;2023-02-28T01:09:30;603.53;;;412.00;;
7239;SDS011;3661;53.288;10.458;2023-02-28T01:12:02;605.13;;;429.65;;
7239;SDS011;3661;53.288;10.458;2023-02-28T01:14:37;599.63;;;414.38;;
7239;SDS011;3661;53.288;10.458;2023-02-28T01:17:16;602.00;;;416.92;;
7239;SDS011;3661;53.288;10.458;2023-02-28T01:19:49;600.90;;;415.13;;
7239;SDS011;3661;53.288;10.458;2023-02-28T01:22:24;602.30;;;414.77;;
7239;SDS011;3661;53.288;10.458;2023-02-28T01:24:56;600.75;;;423.40;;
7239;SDS011;3661;53.288;10.458;2023-02-28T01:27:28;600.33;;;414.98;;
7239;SDS011;3661;53.288;10.458;2023-02-28T01:30:02;601.47;;;415.00;;
7239;SDS011;3661;53.288;10.458;2023-02-28T01:32:35;601.63;;;412.88;;
7239;SDS011;3661;53.288;10.458;2023-02-28T01:35:09;603.13;;;425.42;;
7239;SDS011;3661;53.288;10.458;2023-02-28T01:37:41;601.83;;;416.38;;
7239;SDS011;3661;53.288;10.458;2023-02-28T01:40:13;602.20;;;429.90;;
7239;SDS011;3661;53.288;10.458;2023-02-28T01:42:46;599.28;;;422.38;;
7239;SDS011;3661;53.288;10.458;2023-02-28T01:45:20;600.85;;;417.45;;
7239;SDS011;3661;53.288;10.458;2023-02-28T01:47:58;601.87;;;422.13;;
7239;SDS011;3661;53.288;10.458;2023-02-28T01:50:34;600.45;;;412.08;;
7239;SDS011;3661;53.288;10.458;2023-02-28T01:53:10;600.10;;;412.58;;
7239;SDS011;3661;53.288;10.458;2023-02-28T01:55:48;603.78;;;414.10;;
7239;SDS011;3661;53.288;10.458;2023-02-28T01:58:23;603.03;;;419.65;;
7239;SDS011;3661;53.288;10.458;2023-02-28T02:00:57;601.47;;;406.98;;
7239;SDS011;3661;53.288;10.458;2023-02-28T02:03:30;601.50;;;416.23;;
7239;SDS011;3661;53.288;10.458;2023-02-28T02:06:04;598.33;;;407.38;;
7239;SDS011;3661;53.288;10.458;2023-02-28T02:08:36;598.58;;;415.23;;
7239;SDS011;3661;53.288;10.458;2023-02-28T02:11:10;602.13;;;421.60;;
7239;SDS011;3661;53.288;10.458;2023-02-28T02:13:50;601.83;;;415.58;;
7239;SDS011;3661;53.288;10.458;2023-02-28T02:16:40;599.75;;;418.63;;
7239;SDS011;3661;53.288;10.458;2023-02-28T02:19:31;600.08;;;421.80;;
7239;SDS011;3661;53.288;10.458;2023-02-28T02:22:25;598.15;;;413.55;;
7239;SDS011;3661;53.288;10.458;2023-02-28T02:25:23;600.33;;;420.00;;
7239;SDS011;3661;53.288;10.458;2023-02-28T02:34:27;594.22;;;414.30;;
7239;SDS011;3661;53.288;10.458;2023-02-28T02:37:22;596.70;;;414.73;;
7239;SDS011;3661;53.288;10.458;2023-02-28T02:40:04;594.40;;;415.77;;
7239;SDS011;3661;53.288;10.458;2023-02-28T02:42:45;594.58;;;405.83;;
7239;SDS011;3661;53.288;10.458;2023-02-28T02:45:23;595.97;;;415.90;;
7239;SDS011;3661;53.288;10.458;2023-02-28T02:47:59;596.88;;;414.75;;
7239;SDS011;3661;53.288;10.458;2023-02-28T02:50:36;593.58;;;409.77;;
7239;SDS011;3661;53.288;10.458;2023-02-28T02:53:11;592.10;;;400.40;;
7239;SDS011;3661;53.288;10.458;2023-02-28T02:55:47;592.67;;;401.42;;
7239;SDS011;3661;53.288;10.458;2023-02-28T02:58:24;590.80;;;398.17;;
7239;SDS011;3661;53.288;10.458;2023-02-28T03:01:00;592.35;;;403.42;;
7239;SDS011;3661;53.288;10.458;2023-02-28T03:03:35;594.55;;;399.90;;
7239;SDS011;3661;53.288;10.458;2023-02-28T03:06:09;592.13;;;396.80;;
7239;SDS011;3661;53.288;10.458;2023-02-28T03:08:42;592.15;;;396.27;;
7239;SDS011;3661;53.288;10.458;2023-02-28T03:11:15;591.45;;;395.27;;
7239;SDS011;3661;53.288;10.458;2023-02-28T03:14:00;589.60;;;398.98;;
7239;SDS011;3661;53.288;10.458;2023-02-28T03:16:58;588.15;;;399.33;;
7239;SDS011;3661;53.288;10.458;2023-02-28T03:19:41;586.22;;;398.25;;
7239;SDS011;3661;53.288;10.458;2023-02-28T03:22:23;582.00;;;397.92;;
7239;SDS011;3661;53.288;10.458;2023-02-28T03:25:06;584.33;;;394.43;;
7239;SDS011;3661;53.288;10.458;2023-02-28T03:27:46;584.28;;;393.60;;
7239;SDS011;3661;53.288;10.458;2023-02-28T03:30:27;582.85;;;392.05;;
7239;SDS011;3661;53.288;10.458;2023-02-28T03:33:08;579.40;;;388.00;;
7239;SDS011;3661;53.288;10.458;2023-02-28T03:35:45;578.28;;;387.52;;
7239;SDS011;3661;53.288;10.458;2023-02-28T03:38:24;582.15;;;386.73;;
7239;SDS011;3661;53.288;10.458;2023-02-28T03:41:02;579.77;;;376.83;;
7239;SDS011;3661;53.288;10.458;2023-02-28T03:43:50;581.42;;;394.33;;
7239;SDS011;3661;53.288;10.458;2023-02-28T03:46:28;580.73;;;387.70;;
7239;SDS011;3661;53.288;10.458;2023-02-28T03:49:07;576.67;;;388.42;;
7239;SDS011;3661;53.288;10.458;2023-02-28T03:51:42;573.40;;;376.80;;
7239;SDS011;3661;53.288;10.458;2023-02-28T03:54:19;573.95;;;388.75;;
7239;SDS011;3661;53.288;10.458;2023-02-28T03:56:56;569.28;;;378.48;;
7239;SDS011;3661;53.288;10.458;2023-02-28T03:59:34;574.75;;;381.95;;
7239;SDS011;3661;53.288;10.458;2023-02-28T04:02:10;574.05;;;375.85;;
7239;SDS011;3661;53.288;10.458;2023-02-28T04:04:43;575.33;;;373.67;;
7239;SDS011;3661;53.288;10.458;2023-02-28T04:07:18;576.45;;;382.95;;
7239;SDS011;3661;53.288;10.458;2023-02-28T04:09:52;574.30;;;378.85;;
7239;SDS011;3661;53.288;10.458;2023-02-28T04:12:24;572.97;;;376.45;;
7239;SDS011;3661;53.288;10.458;2023-02-28T04:14:57;572.67;;;376.95;;
7239;SDS011;3661;53.288;10.458;2023-02-28T04:17:29;573.15;;;374.65;;
7239;SDS011;3661;53.288;10.458;2023-02-28T04:20:01;572.25;;;365.40;;
7239;SDS011;3661;53.288;10.458;2023-02-28T04:22:39;572.08;;;364.25;;
7239;SDS011;3661;53.288;10.458;2023-02-28T04:25:12;572.78;;;372.60;;
7239;SDS011;3661;53.288;10.458;2023-02-28T04:27:44;574.92;;;376.00;;
7239;SDS011;3661;53.288;10.458;2023-02-28T04:30:18;570.42;;;362.92;;
7239;SDS011;3661;53.288;10.458;2023-02-28T04:32:51;567.97;;;375.10;;
7239;SDS011;3661;53.288;10.458;2023-02-28T04:35:23;568.08;;;369.38;;
7239;SDS011;3661;53.288;10.458;2023-02-28T04:37:56;564.50;;;367.87;;
7239;SDS011;3661;53.288;10.458;2023-02-28T04:40:30;567.50;;;366.52;;
7239;SDS011;3661;53.288;10.458;2023-02-28T04:43:02;562.80;;;369.10;;
7239;SDS011;3661;53.288;10.458;2023-02-28T04:45:34;564.40;;;368.90;;
7239;SDS011;3661;53.288;10.458;2023-02-28T04:48:07;563.17;;;367.50;;
7239;SDS011;3661;53.288;10.458;2023-02-28T04:50:39;561.10;;;358.67;;
7239;SDS011;3661;53.288;10.458;2023-02-28T04:53:14;558.58;;;358.40;;
7239;SDS011;3661;53.288;10.458;2023-02-28T04:55:48;559.33;;;364.58;;
7239;SDS011;3661;53.288;10.458;2023-02-28T04:58:21;554.58;;;354.42;;
7239;SDS011;3661;53.288;10.458;2023-02-28T05:00:54;555.13;;;358.90;;
7239;SDS011;3661;53.288;10.458;2023-02-28T05:03:36;557.13;;;370.08;;
7239;SDS011;3661;53.288;10.458;2023-02-28T05:06:12;553.03;;;357.00;;
7239;SDS011;3661;53.288;10.458;2023-02-28T05:08:47;553.55;;;349.55;;
7239;SDS011;3661;53.288;10.458;2023-02-28T05:11:22;554.40;;;360.25;;
7239;SDS011;3661;53.288;10.458;2023-02-28T05:13:57;553.22;;;356.48;;
7239;SDS011;3661;53.288;10.458;2023-02-28T05:16:29;555.15;;;353.10;;
7239;SDS011;3661;53.288;10.458;2023-02-28T05:19:02;554.72;;;359.67;;
7239;SDS011;3661;53.288;10.458;2023-02-28T05:21:35;556.05;;;368.60;;
7239;SDS011;3661;53.288;10.458;2023-02-28T05:24:09;553.28;;;374.70;;
7239;SDS011;3661;53.288;10.458;2023-02-28T05:26:44;549.78;;;353.95;;
7239;SDS011;3661;53.288;10.458;2023-02-28T05:29:17;546.65;;;354.33;;
7239;SDS011;3661;53.288;10.458;2023-02-28T05:31:49;545.58;;;363.15;;
7239;SDS011;3661;53.288;10.458;2023-02-28T05:34:22;543.15;;;352.00;;
7239;SDS011;3661;53.288;10.458;2023-02-28T05:36:54;546.35;;;350.83;;
7239;SDS011;3661;53.288;10.458;2023-02-28T05:39:26;546.53;;;351.10;;
7239;SDS011;3661;53.288;10.458;2023-02-28T05:42:00;550.35;;;363.40;;
7239;SDS011;3661;53.288;10.458;2023-02-28T05:44:32;550.65;;;363.40;;
7239;SDS011;3661;53.288;10.458;2023-02-28T05:47:08;546.10;;;351.13;;
7239;SDS011;3661;53.288;10.458;2023-02-28T05:49:41;545.80;;;363.37;;
7239;SDS011;3661;53.288;10.458;2023-02-28T05:52:13;542.67;;;353.17;;
7239;SDS011;3661;53.288;10.458;2023-02-28T05:54:45;544.38;;;348.63;;
7239;SDS011;3661;53.288;10.458;2023-02-28T05:57:19;541.95;;;346.17;;
7239;SDS011;3661;53.288;10.458;2023-02-28T05:59:51;541.03;;;357.30;;
7239;SDS011;3661;53.288;10.458;2023-02-28T06:02:23;540.45;;;351.55;;
7239;SDS011;3661;53.288;10.458;2023-02-28T06:04:56;538.75;;;349.88;;
7239;SDS011;3661;53.288;10.458;2023-02-28T06:07:28;538.70;;;344.00;;
7239;SDS011;3661;53.288;10.458;2023-02-28T06:10:00;539.10;;;350.83;;
7239;SDS011;3661;53.288;10.458;2023-02-28T06:12:33;536.67;;;337.52;;
7239;SDS011;3661;53.288;10.458;2023-02-28T06:15:06;540.10;;;354.92;;
7239;SDS011;3661;53.288;10.458;2023-02-28T06:17:39;537.35;;;348.30;;
7239;SDS011;3661;53.288;10.458;2023-02-28T06:20:11;533.20;;;344.48;;
7239;SDS011;3661;53.288;10.458;2023-02-28T06:22:44;533.20;;;338.98;;
7239;SDS011;3661;53.288;10.458;2023-02-28T06:25:16;531.45;;;347.88;;
7239;SDS011;3661;53.288;10.458;2023-02-28T06:27:50;530.50;;;341.38;;
7239;SDS011;3661;53.288;10.458;2023-02-28T06:30:22;528.13;;;344.77;;
7239;SDS011;3661;53.288;10.458;2023-02-28T06:32:56;524.95;;;338.65;;
7239;SDS011;3661;53.288;10.458;2023-02-28T06:35:29;523.97;;;342.00;;
7239;SDS011;3661;53.288;10.458;2023-02-28T06:38:01;523.53;;;340.67;;
7239;SDS011;3661;53.288;10.458;2023-02-28T06:40:34;519.33;;;332.85;;
7239;SDS011;3661;53.288;10.458;2023-02-28T06:43:07;519.10;;;343.73;;
7239;SDS011;3661;53.288;10.458;2023-02-28T06:45:42;522.75;;;354.73;;
7239;SDS011;3661;53.288;10.458;2023-02-28T06:48:15;521.53;;;353.70;;
7239;SDS011;3661;53.288;10.458;2023-02-28T06:50:47;519.80;;;352.47;;
7239;SDS011;3661;53.288;10.458;2023-02-28T06:53:20;510.88;;;347.30;;
7239;SDS011;3661;53.288;10.458;2023-02-28T06:55:52;515.42;;;342.55;;
7239;SDS011;3661;53.288;10.458;2023-02-28T06:58:25;515.30;;;354.30;;
7239;SDS011;3661;53.288;10.458;2023-02-28T07:00:57;510.15;;;344.40;;
7239;SDS011;3661;53.288;10.458;2023-02-28T07:03:29;516.97;;;343.90;;
7239;SDS011;3661;53.288;10.458;2023-02-28T07:06:02;515.22;;;350.63;;
7239;SDS011;3661;53.288;10.458;2023-02-28T07:08:35;512.53;;;343.50;;
7239;SDS011;3661;53.288;10.458;2023-02-28T07:11:08;513.05;;;341.63;;
7239;SDS011;3661;53.288;10.458;2023-02-28T07:13:41;510.00;;;341.55;;
7239;SDS011;3661;53.288;10.458;2023-02-28T07:16:13;512.65;;;344.73;;
7239;SDS011;3661;53.288;10.458;2023-02-28T07:18:45;512.75;;;344.77;;
7239;SDS011;3661;53.288;10.458;2023-02-28T07:21:17;511.42;;;337.90;;
7239;SDS011;3661;53.288;10.458;2023-02-28T07:23:50;511.48;;;350.08;;
7239;SDS011;3661;53.288;10.458;2023-02-28T07:26:22;511.00;;;353.52;;
7239;SDS011;3661;53.288;10.458;2023-02-28T07:28:56;514.72;;;348.38;;
7239;SDS011;3661;53.288;10.458;2023-02-28T07:31:28;511.60;;;345.90;;
7239;SDS011;3661;53.288;10.458;2023-02-28T07:34:00;520.10;;;356.38;;
7239;SDS011;3661;53.288;10.458;2023-02-28T07:36:32;521.97;;;350.92;;
7239;SDS011;3661;53.288;10.458;2023-02-28T07:39:04;528.47;;;372.70;;
7239;SDS011;3661;53.288;10.458;2023-02-28T07:41:36;522.58;;;354.67;;
7239;SDS011;3661;53.288;10.458;2023-02-28T07:44:15;526.33;;;361.20;;
7239;SDS011;3661;53.288;10.458;2023-02-28T07:46:47;528.77;;;373.40;;
7239;SDS011;3661;53.288;10.458;2023-02-28T07:49:19;531.95;;;373.15;;
7239;SDS011;3661;53.288;10.458;2023-02-28T07:51:51;531.80;;;364.38;;
7239;SDS011;3661;53.288;10.458;2023-02-28T07:54:26;532.75;;;366.00;;
7239;SDS011;3661;53.288;10.458;2023-02-28T07:56:58;534.33;;;369.65;;
7239;SDS011;3661;53.288;10.458;2023-02-28T07:59:31;535.60;;;375.40;;
7239;SDS011;3661;53.288;10.458;2023-02-28T08:02:03;540.90;;;386.00;;
7239;SDS011;3661;53.288;10.458;2023-02-28T08:04:35;542.45;;;390.50;;
7239;SDS011;3661;53.288;10.458;2023-02-28T08:07:08;545.10;;;390.73;;
7239;SDS011;3661;53.288;10.458;2023-02-28T08:09:43;545.67;;;386.80;;
7239;SDS011;3661;53.288;10.458;2023-02-28T08:12:15;546.53;;;389.13;;
7239;SDS011;3661;53.288;10.458;2023-02-28T08:14:49;551.20;;;392.02;;
7239;SDS011;3661;53.288;10.458;2023-02-28T08:17:21;555.05;;;403.95;;
7239;SDS011;3661;53.288;10.458;2023-02-28T08:19:53;556.28;;;407.55;;
7239;SDS011;3661;53.288;10.458;2023-02-28T08:22:25;564.95;;;413.45;;
7239;SDS011;3661;53.288;10.458;2023-02-28T08:24:57;560.95;;;410.55;;
7239;SDS011;3661;53.288;10.458;2023-02-28T08:27:29;572.30;;;434.02;;
7239;SDS011;3661;53.288;10.458;2023-02-28T08:30:03;568.73;;;431.07;;
7239;SDS011;3661;53.288;10.458;2023-02-28T08:32:35;575.88;;;430.55;;
7239;SDS011;3661;53.288;10.458;2023-02-28T08:35:08;588.15;;;455.25;;
7239;SDS011;3661;53.288;10.458;2023-02-28T08:37:40;588.58;;;454.85;;
7239;SDS011;3661;53.288;10.458;2023-02-28T08:40:12;591.30;;;450.40;;
7239;SDS011;3661;53.288;10.458;2023-02-28T08:42:48;593.58;;;448.60;;
7239;SDS011;3661;53.288;10.458;2023-02-28T08:45:21;598.17;;;467.67;;
7239;SDS011;3661;53.288;10.458;2023-02-28T08:47:53;601.05;;;463.95;;
7239;SDS011;3661;53.288;10.458;2023-02-28T08:50:26;603.67;;;477.38;;
7239;SDS011;3661;53.288;10.458;2023-02-28T08:52:58;607.73;;;490.73;;
7239;SDS011;3661;53.288;10.458;2023-02-28T08:55:31;607.78;;;500.10;;
7239;SDS011;3661;53.288;10.458;2023-02-28T08:58:03;616.92;;;509.80;;
7239;SDS011;3661;53.288;10.458;2023-02-28T09:00:36;621.73;;;510.00;;
7239;SDS011;3661;53.288;10.458;2023-02-28T09:03:08;624.60;;;519.13;;
7239;SDS011;3661;53.288;10.458;2023-02-28T09:05:40;630.83;;;532.05;;
7239;SDS011;3661;53.288;10.458;2023-02-28T09:08:12;634.67;;;535.83;;
7239;SDS011;3661;53.288;10.458;2023-02-28T09:10:44;638.50;;;543.35;;
7239;SDS011;3661;53.288;10.458;2023-02-28T09:13:17;647.78;;;558.95;;
7239;SDS011;3661;53.288;10.458;2023-02-28T09:15:51;650.92;;;561.47;;
7239;SDS011;3661;53.288;10.458;2023-02-28T09:18:23;651.33;;;570.78;;
7239;SDS011;3661;53.288;10.458;2023-02-28T09:20:55;661.25;;;586.95;;
7239;SDS011;3661;53.288;10.458;2023-02-28T09:23:27;668.10;;;594.80;;
7239;SDS011;3661;53.288;10.458;2023-02-28T09:25:59;679.60;;;605.50;;
7239;SDS011;3661;53.288;10.458;2023-02-28T09:28:32;671.42;;;597.22;;
7239;SDS011;3661;53.288;10.458;2023-02-28T09:31:05;701.22;;;625.85;;
7239;SDS011;3661;53.288;10.458;2023-02-28T09:33:37;705.10;;;629.13;;
7239;SDS011;3661;53.288;10.458;2023-02-28T09:36:10;727.30;;;650.88;;
7239;SDS011;3661;53.288;10.458;2023-02-28T09:38:42;720.05;;;643.08;;
7239;SDS011;3661;53.288;10.458;2023-02-28T09:41:14;732.95;;;654.95;;
7239;SDS011;3661;53.288;10.458;2023-02-28T09:43:49;746.80;;;668.22;;
7239;SDS011;3661;53.288;10.458;2023-02-28T09:46:29;776.65;;;697.45;;
7239;SDS011;3661;53.288;10.458;2023-02-28T09:49:05;772.22;;;693.28;;
7239;SDS011;3661;53.288;10.458;2023-02-28T09:51:47;772.72;;;693.47;;
7239;SDS011;3661;53.288;10.458;2023-02-28T09:54:23;806.53;;;726.17;;
7239;SDS011;3661;53.288;10.458;2023-02-28T09:56:59;818.85;;;738.17;;
7239;SDS011;3661;53.288;10.458;2023-02-28T09:59:39;819.27;;;738.63;;
7239;SDS011;3661;53.288;10.458;2023-02-28T10:05:38;857.05;;;775.08;;
7239;SDS011;3661;53.288;10.458;2023-02-28T10:08:15;867.17;;;784.58;;
7239;SDS011;3661;53.288;10.458;2023-02-28T10:10:51;881.72;;;798.22;;
7239;SDS011;3661;53.288;10.458;2023-02-28T10:13:29;892.83;;;809.13;;
7239;SDS011;3661;53.288;10.458;2023-02-28T10:16:06;904.28;;;820.35;;
7239;SDS011;3661;53.288;10.458;2023-02-28T10:18:46;926.15;;;842.53;;
7239;SDS011;3661;53.288;10.458;2023-02-28T10:21:21;922.17;;;838.33;;
7239;SDS011;3661;53.288;10.458;2023-02-28T10:24:01;940.63;;;856.35;;
7239;SDS011;3661;53.288;10.458;2023-02-28T10:26:35;956.07;;;871.47;;
7239;SDS011;3661;53.288;10.458;2023-02-28T10:29:08;963.57;;;878.40;;
7239;SDS011;3661;53.288;10.458;2023-02-28T10:31:41;964.15;;;878.92;;
7239;SDS011;3661;53.288;10.458;2023-02-28T10:34:13;1003.05;;;917.42;;
7239;SDS011;3661;53.288;10.458;2023-02-28T10:36:47;992.70;;;907.05;;
7239;SDS011;3661;53.288;10.458;2023-02-28T10:39:34;1025.75;;;939.55;;
7239;SDS011;3661;53.288;10.458;2023-02-28T10:42:21;1174.00;;;999.90;;
7239;SDS011;3661;53.288;10.458;2023-02-28T10:45:06;1216.15;;;999.90;;
7239;SDS011;3661;53.288;10.458;2023-02-28T10:47:49;1195.97;;;999.90;;
7239;SDS011;3661;53.288;10.458;2023-02-28T10:50:28;1194.25;;;999.90;;
7239;SDS011;3661;53.288;10.458;2023-02-28T10:53:28;1251.25;;;999.90;;
7239;SDS011;3661;53.288;10.458;2023-02-28T10:56:14;1276.68;;;999.90;;
7239;SDS011;3661;53.288;10.458;2023-02-28T10:58:50;1282.90;;;999.90;;
7239;SDS011;3661;53.288;10.458;2023-02-28T11:01:25;1307.78;;;999.90;;
7239;SDS011;3661;53.288;10.458;2023-02-28T11:04:17;1366.23;;;999.90;;
7239;SDS011;3661;53.288;10.458;2023-02-28T11:06:56;1387.15;;;999.90;;
7239;SDS011;3661;53.288;10.458;2023-02-28T11:09:32;1397.55;;;999.90;;
7239;SDS011;3661;53.288;10.458;2023-02-28T11:12:07;1397.63;;;999.90;;
7239;SDS011;3661;53.288;10.458;2023-02-28T11:14:51;1449.63;;;999.90;;
7239;SDS011;3661;53.288;10.458;2023-02-28T11:17:26;1435.03;;;999.90;;
7239;SDS011;3661;53.288;10.458;2023-02-28T11:20:01;1453.55;;;999.90;;
7239;SDS011;3661;53.288;10.458;2023-02-28T11:22:37;1479.28;;;999.90;;
7239;SDS011;3661;53.288;10.458;2023-02-28T11:25:19;1481.63;;;999.90;;
7239;SDS011;3661;53.288;10.458;2023-02-28T11:27:54;1488.78;;;999.90;;
7239;SDS011;3661;53.288;10.458;2023-02-28T11:30:33;1507.70;;;999.90;;
7239;SDS011;3661;53.288;10.458;2023-02-28T11:33:22;1518.70;;;999.90;;
7239;SDS011;3661;53.288;10.458;2023-02-28T11:35:58;1524.95;;;999.90;;
7239;SDS011;3661;53.288;10.458;2023-02-28T11:38:33;1518.43;;;999.90;;
7239;SDS011;3661;53.288;10.458;2023-02-28T11:41:12;1531.85;;;999.90;;
7239;SDS011;3661;53.288;10.458;2023-02-28T11:44:16;1544.85;;;999.90;;
7239;SDS011;3661;53.288;10.458;2023-02-28T11:46:56;1568.10;;;999.90;;
7239;SDS011;3661;53.288;10.458;2023-02-28T11:49:35;1561.47;;;999.90;;
7239;SDS011;3661;53.288;10.458;2023-02-28T11:52:19;1547.63;;;999.90;;
7239;SDS011;3661;53.288;10.458;2023-02-28T11:55:06;1563.75;;;999.90;;
7239;SDS011;3661;53.288;10.458;2023-02-28T11:57:52;1582.50;;;999.90;;
7239;SDS011;3661;53.288;10.458;2023-02-28T12:00:39;1599.97;;;999.90;;
7239;SDS011;3661;53.288;10.458;2023-02-28T12:03:26;1599.47;;;999.90;;
7239;SDS011;3661;53.288;10.458;2023-02-28T12:06:03;1602.63;;;999.90;;
7239;SDS011;3661;53.288;10.458;2023-02-28T12:08:47;1597.47;;;999.90;;
7239;SDS011;3661;53.288;10.458;2023-02-28T12:11:29;1593.82;;;999.90;;
7239;SDS011;3661;53.288;10.458;2023-02-28T12:17:05;1616.67;;;999.90;;
7239;SDS011;3661;53.288;10.458;2023-02-28T12:19:52;1615.63;;;999.90;;
7239;SDS011;3661;53.288;10.458;2023-02-28T12:22:30;1635.07;;;999.90;;
7239;SDS011;3661;53.288;10.458;2023-02-28T12:28:20;1644.63;;;999.90;;
7239;SDS011;3661;53.288;10.458;2023-02-28T12:30:58;1633.30;;;999.90;;
7239;SDS011;3661;53.288;10.458;2023-02-28T12:33:34;1632.97;;;999.90;;
7239;SDS011;3661;53.288;10.458;2023-02-28T12:36:11;1637.90;;;999.90;;
7239;SDS011;3661;53.288;10.458;2023-02-28T12:38:50;1643.28;;;999.90;;
7239;SDS011;3661;53.288;10.458;2023-02-28T12:41:27;1624.75;;;999.90;;
7239;SDS011;3661;53.288;10.458;2023-02-28T12:44:06;1643.30;;;999.90;;
7239;SDS011;3661;53.288;10.458;2023-02-28T12:46:46;1637.82;;;999.90;;
7239;SDS011;3661;53.288;10.458;2023-02-28T12:49:23;1638.63;;;999.90;;
7239;SDS011;3661;53.288;10.458;2023-02-28T12:55:29;1638.05;;;999.90;;
7239;SDS011;3661;53.288;10.458;2023-02-28T13:15:21;1636.80;;;999.90;;
7239;SDS011;3661;53.288;10.458;2023-02-28T13:21:43;1646.88;;;999.90;;
7239;SDS011;3661;53.288;10.458;2023-02-28T13:50:59;1644.13;;;999.90;;
7239;SDS011;3661;53.288;10.458;2023-02-28T13:57:02;1647.00;;;999.90;;
7239;SDS011;3661;53.288;10.458;2023-02-28T13:59:45;1629.18;;;999.90;;
7239;SDS011;3661;53.288;10.458;2023-02-28T14:02:34;1660.55;;;999.90;;
7239;SDS011;3661;53.288;10.458;2023-02-28T14:05:18;1636.93;;;999.90;;
7239;SDS011;3661;53.288;10.458;2023-02-28T14:07:57;1645.72;;;999.90;;
7239;SDS011;3661;53.288;10.458;2023-02-28T14:10:32;1636.93;;;999.90;;
7239;SDS011;3661;53.288;10.458;2023-02-28T14:13:12;1655.78;;;999.90;;
7239;SDS011;3661;53.288;10.458;2023-02-28T14:16:08;1635.03;;;999.90;;
7239;SDS011;3661;53.288;10.458;2023-02-28T14:18:42;1625.53;;;999.90;;
7239;SDS011;3661;53.288;10.458;2023-02-28T14:21:21;1651.38;;;999.90;;
7239;SDS011;3661;53.288;10.458;2023-02-28T14:24:00;1636.60;;;999.90;;
7239;SDS011;3661;53.288;10.458;2023-02-28T14:26:53;1643.03;;;999.90;;
7239;SDS011;3661;53.288;10.458;2023-02-28T14:29:42;1637.55;;;999.90;;
7239;SDS011;3661;53.288;10.458;2023-02-28T14:32:40;1636.25;;;999.90;;
7239;SDS011;3661;53.288;10.458;2023-02-28T14:35:25;1644.75;;;999.90;;
7239;SDS011;3661;53.288;10.458;2023-02-28T14:38:17;1619.20;;;999.90;;
7239;SDS011;3661;53.288;10.458;2023-02-28T14:40:53;1637.50;;;999.90;;
7239;SDS011;3661;53.288;10.458;2023-02-28T14:43:28;1629.13;;;999.90;;
7239;SDS011;3661;53.288;10.458;2023-02-28T14:46:00;1654.93;;;999.90;;
7239;SDS011;3661;53.288;10.458;2023-02-28T14:48:37;1630.90;;;999.90;;
7239;SDS011;3661;53.288;10.458;2023-02-28T14:51:10;1628.63;;;999.90;;
7239;SDS011;3661;53.288;10.458;2023-02-28T14:53:42;1631.07;;;999.90;;
7239;SDS011;3661;53.288;10.458;2023-02-28T14:56:19;1639.95;;;999.90;;
7239;SDS011;3661;53.288;10.458;2023-02-28T14:58:54;1616.55;;;999.90;;
7239;SDS011;3661;53.288;10.458;2023-02-28T15:01:27;1626.97;;;999.90;;
7239;SDS011;3661;53.288;10.458;2023-02-28T15:04:02;1620.15;;;999.90;;
7239;SDS011;3661;53.288;10.458;2023-02-28T15:06:35;1639.25;;;999.90;;
7239;SDS011;3661;53.288;10.458;2023-02-28T15:09:08;1607.32;;;999.90;;
7239;SDS011;3661;53.288;10.458;2023-02-28T15:11:44;1611.72;;;999.90;;
7239;SDS011;3661;53.288;10.458;2023-02-28T15:14:19;1603.22;;;999.90;;
7239;SDS011;3661;53.288;10.458;2023-02-28T15:16:52;1605.75;;;999.90;;
7239;SDS011;3661;53.288;10.458;2023-02-28T15:19:29;1611.38;;;999.90;;
7239;SDS011;3661;53.288;10.458;2023-02-28T15:22:04;1604.03;;;999.90;;
7239;SDS011;3661;53.288;10.458;2023-02-28T15:24:40;1582.00;;;999.90;;
7239;SDS011;3661;53.288;10.458;2023-02-28T15:27:15;1585.10;;;999.90;;
7239;SDS011;3661;53.288;10.458;2023-02-28T15:29:53;1571.75;;;999.90;;
7239;SDS011;3661;53.288;10.458;2023-02-28T15:32:29;1596.47;;;999.90;;
7239;SDS011;3661;53.288;10.458;2023-02-28T15:38:00;1594.25;;;999.90;;
7239;SDS011;3661;53.288;10.458;2023-02-28T15:40:36;1590.80;;;999.90;;
7239;SDS011;3661;53.288;10.458;2023-02-28T15:43:13;1599.38;;;999.90;;
7239;SDS011;3661;53.288;10.458;2023-02-28T15:45:47;1605.63;;;999.90;;
7239;SDS011;3661;53.288;10.458;2023-02-28T15:48:22;1589.47;;;999.90;;
7239;SDS011;3661;53.288;10.458;2023-02-28T15:50:58;1589.82;;;999.90;;
7239;SDS011;3661;53.288;10.458;2023-02-28T15:53:35;1580.97;;;999.90;;
7239;SDS011;3661;53.288;10.458;2023-02-28T15:56:14;1585.45;;;999.90;;
7239;SDS011;3661;53.288;10.458;2023-02-28T15:58:53;1582.22;;;999.90;;
7239;SDS011;3661;53.288;10.458;2023-02-28T16:01:27;1562.07;;;999.90;;
7239;SDS011;3661;53.288;10.458;2023-02-28T16:04:02;1554.57;;;999.90;;
7239;SDS011;3661;53.288;10.458;2023-02-28T16:06:39;1557.30;;;999.90;;
7239;SDS011;3661;53.288;10.458;2023-02-28T16:09:13;1537.17;;;999.90;;